createdAt,value
2022-11-12T00:01:26.850Z,3.66
2022-11-12T00:04:12.123Z,3.88
2022-11-12T00:06:57.395Z,4.05
2022-11-12T00:09:42.549Z,4.21
2022-11-12T00:12:27.727Z,4.17
2022-11-12T00:15:13.113Z,4.09
2022-11-12T00:17:58.271Z,3.96
2022-11-12T00:20:44.669Z,4.09
2022-11-12T00:23:29.887Z,4.03
2022-11-12T00:26:14.775Z,3.81
2022-11-12T00:29:00.027Z,3.65
2022-11-12T00:31:45.201Z,3.57
2022-11-12T00:34:31.297Z,3.56
2022-11-12T00:37:16.911Z,3.61
2022-11-12T00:40:02.043Z,3.63
2022-11-12T00:42:47.247Z,3.58
2022-11-12T00:45:32.186Z,3.46
2022-11-12T00:48:17.519Z,3.38
2022-11-12T00:51:04.796Z,3.30
2022-11-12T00:53:50.678Z,3.44
2022-11-12T00:56:35.852Z,3.52
2022-11-12T00:59:21.023Z,3.52
2022-11-12T01:02:06.380Z,3.45
2022-11-12T01:04:51.601Z,3.51
2022-11-12T01:07:36.909Z,3.67
2022-11-12T01:10:22.328Z,3.63
2022-11-12T01:13:07.519Z,3.51
2022-11-12T01:15:52.852Z,3.46
2022-11-12T01:18:38.096Z,3.43
2022-11-12T01:21:28.623Z,3.42
2022-11-12T01:24:14.007Z,3.43
2022-11-12T01:26:59.154Z,3.38
2022-11-12T01:29:44.414Z,3.47
2022-11-12T01:32:29.605Z,3.45
2022-11-12T01:35:14.925Z,3.38
2022-11-12T01:38:00.210Z,3.35
2022-11-12T01:40:45.423Z,3.31
2022-11-12T01:43:30.790Z,3.35
2022-11-12T01:46:28.781Z,3.36
2022-11-12T01:49:23.555Z,3.42
2022-11-12T01:52:17.120Z,3.36
2022-11-12T01:55:07.073Z,3.31
2022-11-12T01:58:08.108Z,3.34
2022-11-12T02:00:53.331Z,3.36
2022-11-12T02:03:38.481Z,3.48
2022-11-12T02:06:24.592Z,3.52
2022-11-12T02:09:10.072Z,3.50
2022-11-12T02:11:55.314Z,3.46
2022-11-12T02:14:40.855Z,3.36
2022-11-12T02:17:25.829Z,3.25
2022-11-12T02:20:12.888Z,3.23
2022-11-12T02:22:57.755Z,3.21
2022-11-12T02:25:43.004Z,3.24
2022-11-12T02:28:31.504Z,3.31
2022-11-12T02:31:16.757Z,3.38
2022-11-12T02:34:02.894Z,3.35
2022-11-12T02:36:47.955Z,3.51
2022-11-12T02:39:34.002Z,3.49
2022-11-12T02:42:19.259Z,3.33
2022-11-12T02:45:05.872Z,3.23
2022-11-12T02:47:50.904Z,3.14
2022-11-12T02:50:35.957Z,3.06
2022-11-12T02:53:21.266Z,3.00
2022-11-12T02:56:06.928Z,3.01
2022-11-12T02:58:51.867Z,3.17
2022-11-12T03:01:37.010Z,3.22
2022-11-12T03:04:22.233Z,3.05
2022-11-12T03:07:07.355Z,3.08
2022-11-12T03:09:52.586Z,3.12
2022-11-12T03:12:37.732Z,3.12
2022-11-12T03:15:23.305Z,3.09
2022-11-12T03:18:08.573Z,3.09
2022-11-12T03:20:54.127Z,3.14
2022-11-12T03:23:39.386Z,3.17
2022-11-12T03:26:24.680Z,3.30
2022-11-12T03:29:10.087Z,3.39
2022-11-12T03:31:55.619Z,3.38
2022-11-12T03:34:40.530Z,3.29
2022-11-12T03:37:25.729Z,3.30
2022-11-12T03:40:11.354Z,3.37
2022-11-12T03:42:57.162Z,3.43
2022-11-12T03:45:42.071Z,3.57
2022-11-12T03:48:27.752Z,3.69
2022-11-12T03:51:16.356Z,3.66
2022-11-12T03:54:01.579Z,3.65
2022-11-12T03:56:46.804Z,3.56
2022-11-12T03:59:32.060Z,3.18
2022-11-12T04:02:16.952Z,3.14
2022-11-12T04:05:20.729Z,3.21
2022-11-12T04:08:36.511Z,3.27
2022-11-12T04:11:21.782Z,3.21
2022-11-12T04:14:07.039Z,3.12
2022-11-12T04:17:10.982Z,3.14
2022-11-12T04:20:14.881Z,3.12
2022-11-12T04:23:00.028Z,3.02
2022-11-12T04:26:04.783Z,3.09
2022-11-12T04:29:08.640Z,2.92
2022-11-12T04:31:54.464Z,2.80
2022-11-12T04:34:39.683Z,2.84
2022-11-12T04:37:28.385Z,3.03
2022-11-12T04:40:33.893Z,3.06
2022-11-12T04:43:37.607Z,2.86
2022-11-12T04:46:22.818Z,2.83
2022-11-12T04:49:08.140Z,2.93
2022-11-12T04:52:04.997Z,3.10
2022-11-12T04:54:50.888Z,3.20
2022-11-12T04:57:36.330Z,3.23
2022-11-12T05:00:21.604Z,3.16
2022-11-12T05:03:06.886Z,3.15
2022-11-12T05:05:52.139Z,3.09
2022-11-12T05:08:37.541Z,3.03
2022-11-12T05:11:22.433Z,2.93
2022-11-12T05:14:07.623Z,2.88
2022-11-12T05:16:52.776Z,2.89
2022-11-12T05:19:38.100Z,2.87
2022-11-12T05:22:42.609Z,2.89
2022-11-12T05:25:28.155Z,2.96
2022-11-12T05:28:13.511Z,2.95
2022-11-12T05:30:58.604Z,2.95
2022-11-12T05:33:43.879Z,2.96
2022-11-12T05:36:28.968Z,3.02
2022-11-12T05:39:14.133Z,2.94
2022-11-12T05:42:12.488Z,2.86
2022-11-12T05:44:58.144Z,2.81
2022-11-12T05:47:43.765Z,2.77
2022-11-12T05:50:34.993Z,2.72
2022-11-12T05:53:25.689Z,2.59
2022-11-12T05:56:11.556Z,2.53
2022-11-12T05:58:57.585Z,2.49
2022-11-12T06:01:45.297Z,2.51
2022-11-12T06:04:30.343Z,2.50
2022-11-12T06:07:15.692Z,2.62
2022-11-12T06:10:00.791Z,2.51
2022-11-12T06:12:46.122Z,2.64
2022-11-12T06:15:36.502Z,2.69
2022-11-12T06:18:25.521Z,2.65
2022-11-12T06:21:24.203Z,2.50
2022-11-12T06:24:09.549Z,2.48
2022-11-12T06:26:54.401Z,2.50
2022-11-12T06:29:39.663Z,2.53
2022-11-12T06:32:25.511Z,2.53
2022-11-12T06:35:10.806Z,2.51
2022-11-12T06:37:56.122Z,2.56
2022-11-12T06:40:41.952Z,2.65
2022-11-12T06:43:29.567Z,2.75
2022-11-12T06:46:16.426Z,3.07
2022-11-12T06:49:01.391Z,3.48
2022-11-12T06:51:46.883Z,3.83
2022-11-12T06:54:32.023Z,3.89
2022-11-12T06:57:17.460Z,3.97
2022-11-12T07:00:02.614Z,4.06
2022-11-12T07:02:47.779Z,4.23
2022-11-12T07:05:36.188Z,4.38
2022-11-12T07:08:21.412Z,4.55
2022-11-12T07:11:07.712Z,4.47
2022-11-12T07:13:52.730Z,5.20
2022-11-12T07:16:37.848Z,6.03
2022-11-12T07:19:23.114Z,6.36
2022-11-12T07:22:08.361Z,6.43
2022-11-12T07:24:53.612Z,6.31
2022-11-12T07:27:38.808Z,6.05
2022-11-12T07:30:24.007Z,5.78
2022-11-12T07:33:09.233Z,5.72
2022-11-12T07:36:01.834Z,5.39
2022-11-12T07:38:50.389Z,5.14
2022-11-12T07:41:35.677Z,5.16
2022-11-12T07:44:20.996Z,5.13
2022-11-12T07:47:06.381Z,5.15
2022-11-12T07:49:51.625Z,5.05
2022-11-12T07:52:36.875Z,5.19
2022-11-12T07:55:22.252Z,5.41
2022-11-12T07:58:07.393Z,5.59
2022-11-12T08:00:53.451Z,5.59
2022-11-12T08:03:38.402Z,5.66
2022-11-12T08:06:23.964Z,5.82
2022-11-12T08:09:09.067Z,5.86
2022-11-12T08:11:54.445Z,5.97
2022-11-12T08:14:40.023Z,6.19
2022-11-12T08:17:24.922Z,6.75
2022-11-12T08:20:10.329Z,7.22
2022-11-12T08:22:59.927Z,7.21
2022-11-12T08:25:45.803Z,7.21
2022-11-12T08:28:32.827Z,7.37
2022-11-12T08:31:21.172Z,7.63
2022-11-12T08:34:12.533Z,7.81
2022-11-12T08:36:57.987Z,8.00
2022-11-12T08:39:43.216Z,8.26
2022-11-12T08:42:28.413Z,8.43
2022-11-12T08:45:13.671Z,8.71
2022-11-12T08:48:00.341Z,8.87
2022-11-12T08:50:45.813Z,9.09
2022-11-12T08:53:31.328Z,9.19
2022-11-12T08:56:16.570Z,9.08
2022-11-12T08:59:06.226Z,9.17
2022-11-12T09:01:52.573Z,9.12
2022-11-12T09:04:37.914Z,9.26
2022-11-12T09:07:48.153Z,9.33
2022-11-12T09:10:28.858Z,9.37
2022-11-12T09:13:14.678Z,9.40
2022-11-12T09:16:05.108Z,9.41
2022-11-12T09:18:50.382Z,9.47
2022-11-12T09:21:35.673Z,9.57
2022-11-12T09:24:20.914Z,9.65
2022-11-12T09:27:06.021Z,9.79
2022-11-12T09:29:51.359Z,9.76
2022-11-12T09:32:36.547Z,9.80
2022-11-12T09:35:22.530Z,9.84
2022-11-12T09:38:07.551Z,10.01
2022-11-12T09:40:52.796Z,9.97
2022-11-12T09:43:44.474Z,10.20
2022-11-12T09:46:54.240Z,10.33
2022-11-12T09:49:47.920Z,10.78
2022-11-12T09:52:33.271Z,11.26
2022-11-12T09:55:31.624Z,11.53
2022-11-12T09:58:19.316Z,11.54
2022-11-12T10:01:15.204Z,11.68
2022-11-12T10:04:32.771Z,11.75
2022-11-12T10:07:21.154Z,11.78
2022-11-12T10:10:15.023Z,11.80
2022-11-12T10:13:25.230Z,11.82
2022-11-12T10:16:43.162Z,11.94
2022-11-12T10:19:52.504Z,11.95
2022-11-12T10:22:49.510Z,12.03
2022-11-12T10:25:36.083Z,12.15
2022-11-12T10:28:21.295Z,12.30
2022-11-12T10:31:19.321Z,12.36
2022-11-12T10:34:13.668Z,12.55
2022-11-12T10:37:06.414Z,12.71
2022-11-12T10:39:52.419Z,12.84
2022-11-12T10:42:56.732Z,13.01
2022-11-12T10:45:42.719Z,13.18
2022-11-12T10:48:32.369Z,13.28
2022-11-12T10:51:39.167Z,13.33
2022-11-12T10:54:27.330Z,13.49
2022-11-12T10:57:18.440Z,13.54
2022-11-12T11:00:18.937Z,13.57
2022-11-12T11:03:15.477Z,13.51
2022-11-12T11:06:06.553Z,13.64
2022-11-12T11:08:54.108Z,13.68
2022-11-12T11:11:50.111Z,13.84
2022-11-12T11:14:35.593Z,13.94
2022-11-12T11:17:20.969Z,13.95
2022-11-12T11:20:31.928Z,14.02
2022-11-12T11:23:25.911Z,14.05
2022-11-12T11:26:38.478Z,14.23
2022-11-12T11:29:46.686Z,14.41
2022-11-12T11:33:01.312Z,14.55
2022-11-12T11:35:52.856Z,14.56
2022-11-12T11:38:39.852Z,14.77
2022-11-12T11:41:45.505Z,14.83
2022-11-12T11:44:52.149Z,14.68
2022-11-12T11:48:02.252Z,14.57
2022-11-12T11:51:25.880Z,14.54
2022-11-12T11:54:30.377Z,14.61
2022-11-12T11:57:22.715Z,14.72
2022-11-12T12:00:15.600Z,14.80
2022-11-12T12:03:10.243Z,14.80
2022-11-12T12:06:07.959Z,14.73
2022-11-12T12:08:56.571Z,14.77
2022-11-12T12:12:02.570Z,14.41
2022-11-12T12:15:09.089Z,14.10
2022-11-12T12:18:02.319Z,14.07
2022-11-12T12:21:03.245Z,13.82
2022-11-12T12:24:07.246Z,13.72
2022-11-12T12:26:57.676Z,13.73
2022-11-12T12:29:53.732Z,13.79
2022-11-12T12:32:56.523Z,13.85
2022-11-12T12:35:53.518Z,13.95
2022-11-12T12:38:48.583Z,13.92
2022-11-12T12:41:49.113Z,13.98
2022-11-12T12:45:04.972Z,14.18
2022-11-12T12:47:52.048Z,14.19
2022-11-12T12:50:39.931Z,14.43
2022-11-12T12:53:28.157Z,14.43
2022-11-12T12:56:13.404Z,14.48
2022-11-12T12:59:03.695Z,14.50
2022-11-12T13:02:01.202Z,14.51
2022-11-12T13:04:54.788Z,14.42
2022-11-12T13:07:45.665Z,14.41
2022-11-12T13:10:36.656Z,14.23
2022-11-12T13:13:21.556Z,14.06
2022-11-12T13:16:07.606Z,13.94
2022-11-12T13:18:52.700Z,13.99
2022-11-12T13:21:37.874Z,13.93
2022-11-12T13:25:01.480Z,13.77
2022-11-12T13:27:47.081Z,13.53
2022-11-12T13:30:32.167Z,13.40
2022-11-12T13:33:31.687Z,13.21
2022-11-12T13:36:25.080Z,13.06
2022-11-12T13:39:19.610Z,12.90
2022-11-12T13:42:36.962Z,12.81
2022-11-12T13:45:26.183Z,12.68
2022-11-12T13:48:21.811Z,12.53
2022-11-12T13:51:15.201Z,12.35
2022-11-12T13:54:01.340Z,12.19
2022-11-12T13:56:46.285Z,11.99
2022-11-12T13:59:31.587Z,11.87
2022-11-12T14:02:25.462Z,11.80
2022-11-12T14:05:23.374Z,11.75
2022-11-12T14:08:33.307Z,11.63
2022-11-12T14:11:21.519Z,11.54
2022-11-12T14:14:28.058Z,11.48
2022-11-12T14:17:29.375Z,11.39
2022-11-12T14:20:30.548Z,11.37
2022-11-12T14:23:25.084Z,11.32
2022-11-12T14:26:12.598Z,11.29
2022-11-12T14:28:57.629Z,11.26
2022-11-12T14:31:43.202Z,11.19
2022-11-12T14:34:34.888Z,11.14
2022-11-12T14:37:32.274Z,11.11
2022-11-12T14:40:18.776Z,11.06
2022-11-12T14:43:03.790Z,11.02
2022-11-12T14:45:54.976Z,10.97
2022-11-12T14:49:12.260Z,10.90
2022-11-12T14:52:06.227Z,10.86
2022-11-12T14:54:56.506Z,10.72
2022-11-12T14:57:41.991Z,10.64
2022-11-12T15:00:30.022Z,10.53
2022-11-12T15:03:20.729Z,10.38
2022-11-12T15:06:06.020Z,10.35
2022-11-12T15:08:59.029Z,10.26
2022-11-12T15:11:47.538Z,10.08
2022-11-12T15:14:34.156Z,9.92
2022-11-12T15:17:33.214Z,9.75
2022-11-12T15:20:19.595Z,9.59
2022-11-12T15:23:05.189Z,9.44
2022-11-12T15:26:01.376Z,9.26
2022-11-12T15:28:59.962Z,8.93
2022-11-12T15:31:49.882Z,8.77
2022-11-12T15:34:40.764Z,8.80
2022-11-12T15:37:29.498Z,8.82
2022-11-12T15:40:20.354Z,8.84
2022-11-12T15:43:13.879Z,8.70
2022-11-12T15:45:59.373Z,8.58
2022-11-12T15:48:44.430Z,8.44
2022-11-12T15:51:29.501Z,8.29
2022-11-12T15:54:14.651Z,8.26
2022-11-12T15:56:59.669Z,8.17
2022-11-12T15:59:46.196Z,7.98
2022-11-12T16:02:31.916Z,7.93
2022-11-12T16:05:18.591Z,7.89
2022-11-12T16:08:04.324Z,7.78
2022-11-12T16:10:50.207Z,7.73
2022-11-12T16:13:36.387Z,7.61
2022-11-12T16:16:21.487Z,7.53
2022-11-12T16:19:13.882Z,7.37
2022-11-12T16:21:59.290Z,7.24
2022-11-12T16:24:44.574Z,7.29
2022-11-12T16:27:30.235Z,7.29
2022-11-12T16:30:15.255Z,7.45
2022-11-12T16:33:01.626Z,7.47
2022-11-12T16:35:46.921Z,7.25
2022-11-12T16:38:32.087Z,7.31
2022-11-12T16:41:17.511Z,7.17
2022-11-12T16:44:02.379Z,7.09
2022-11-12T16:46:47.443Z,7.22
2022-11-12T16:49:38.286Z,7.18
2022-11-12T16:52:23.792Z,6.97
2022-11-12T16:55:10.084Z,6.77
2022-11-12T16:57:54.890Z,6.56
2022-11-12T17:00:44.130Z,6.46
2022-11-12T17:03:29.785Z,6.46
2022-11-12T17:06:15.008Z,6.46
2022-11-12T17:09:00.288Z,6.56
2022-11-12T17:11:45.602Z,6.78
2022-11-12T17:14:30.991Z,6.72
2022-11-12T17:17:16.500Z,6.76
2022-11-12T17:20:01.932Z,6.72
2022-11-12T17:22:47.305Z,6.70
2022-11-12T17:25:32.267Z,6.71
2022-11-12T17:28:17.456Z,6.77
2022-11-12T17:31:12.900Z,6.73
2022-11-12T17:33:58.021Z,6.61
2022-11-12T17:36:44.143Z,6.59
2022-11-12T17:39:29.286Z,6.67
2022-11-12T17:42:14.604Z,6.73
2022-11-12T17:44:59.594Z,6.73
2022-11-12T17:47:44.994Z,6.68
2022-11-12T17:50:29.839Z,6.65
2022-11-12T17:53:15.537Z,6.64
2022-11-12T17:56:01.592Z,6.47
2022-11-12T17:58:47.296Z,6.39
2022-11-12T18:01:34.538Z,6.35
2022-11-12T18:04:22.450Z,6.29
2022-11-12T18:07:08.735Z,6.22
2022-11-12T18:09:54.559Z,6.26
2022-11-12T18:12:39.769Z,6.26
2022-11-12T18:15:25.296Z,6.30
2022-11-12T18:18:10.331Z,6.43
2022-11-12T18:20:56.070Z,6.55
2022-11-12T18:23:44.538Z,6.46
2022-11-12T18:26:29.558Z,6.53
2022-11-12T18:29:14.709Z,6.64
2022-11-12T18:31:59.982Z,6.70
2022-11-12T18:34:45.343Z,6.66
2022-11-12T18:37:30.674Z,6.61
2022-11-12T18:40:16.639Z,6.49
2022-11-12T18:43:01.818Z,6.33
2022-11-12T18:45:54.195Z,6.16
2022-11-12T18:48:40.433Z,6.20
2022-11-12T18:51:25.388Z,6.13
2022-11-12T18:54:10.759Z,6.17
2022-11-12T18:56:56.052Z,6.13
2022-11-12T18:59:41.299Z,6.09
2022-11-12T19:02:26.627Z,5.98
2022-11-12T19:05:11.828Z,6.01
2022-11-12T19:07:57.069Z,6.07
2022-11-12T19:10:42.220Z,5.98
2022-11-12T19:13:27.940Z,5.88
2022-11-12T19:16:17.213Z,5.88
2022-11-12T19:19:02.220Z,5.89
2022-11-12T19:21:48.837Z,5.84
2022-11-12T19:24:33.981Z,5.95
2022-11-12T19:27:19.114Z,5.99
2022-11-12T19:30:05.999Z,5.98
2022-11-12T19:32:51.135Z,6.02
2022-11-12T19:35:38.971Z,6.01
2022-11-12T19:38:24.352Z,6.02
2022-11-12T19:41:17.712Z,6.01
2022-11-12T19:44:04.376Z,5.88
2022-11-12T19:46:49.618Z,5.88
2022-11-12T19:49:34.887Z,5.64
2022-11-12T19:52:19.999Z,5.51
2022-11-12T19:55:05.988Z,5.54
2022-11-12T19:57:52.029Z,5.51
2022-11-12T20:00:37.410Z,5.46
2022-11-12T20:03:25.096Z,5.39
2022-11-12T20:06:16.772Z,5.35
2022-11-12T20:09:03.780Z,5.38
2022-11-12T20:11:50.646Z,5.27
2022-11-12T20:14:36.062Z,5.18
2022-11-12T20:17:21.586Z,5.25
2022-11-12T20:20:09.014Z,5.24
2022-11-12T20:22:54.039Z,5.34
2022-11-12T20:25:39.205Z,5.43
2022-11-12T20:28:24.292Z,5.53
2022-11-12T20:31:12.555Z,5.71
2022-11-12T20:33:57.845Z,5.85
2022-11-12T20:36:43.086Z,5.89
2022-11-12T20:39:28.268Z,5.98
2022-11-12T20:42:13.619Z,6.08
2022-11-12T20:44:58.784Z,6.12
2022-11-12T20:47:43.999Z,6.17
2022-11-12T20:50:29.350Z,6.19
2022-11-12T20:53:14.348Z,6.16
2022-11-12T20:56:11.561Z,6.19
2022-11-12T20:58:58.125Z,6.27
2022-11-12T21:01:43.160Z,6.29
2022-11-12T21:04:28.072Z,6.35
2022-11-12T21:07:13.157Z,6.39
2022-11-12T21:09:58.273Z,6.41
2022-11-12T21:12:43.467Z,6.38
2022-11-12T21:15:28.851Z,6.42
2022-11-12T21:18:13.972Z,6.51
2022-11-12T21:21:08.841Z,6.61
2022-11-12T21:23:54.005Z,6.55
2022-11-12T21:26:39.617Z,6.61
2022-11-12T21:29:24.691Z,6.62
2022-11-12T21:32:10.072Z,6.67
2022-11-12T21:34:55.738Z,6.70
2022-11-12T21:37:40.913Z,6.78
2022-11-12T21:40:25.980Z,6.80
2022-11-12T21:43:11.874Z,6.90
2022-11-12T21:45:57.813Z,6.97
2022-11-12T21:48:43.715Z,7.00
2022-11-12T21:51:31.578Z,7.07
2022-11-12T21:54:16.804Z,7.12
2022-11-12T21:57:02.062Z,7.11
2022-11-12T21:59:47.872Z,7.13
2022-11-12T22:02:33.036Z,7.15
2022-11-12T22:05:18.411Z,7.14
2022-11-12T22:08:03.408Z,7.12
2022-11-12T22:10:48.665Z,7.13
2022-11-12T22:13:34.366Z,7.12
2022-11-12T22:16:21.610Z,7.07
2022-11-12T22:19:07.163Z,7.00
2022-11-12T22:21:52.477Z,6.92
2022-11-12T22:24:37.626Z,6.88
2022-11-12T22:27:23.699Z,6.77
2022-11-12T22:30:09.202Z,6.69
2022-11-12T22:32:54.613Z,6.57
2022-11-12T22:35:39.923Z,6.45
2022-11-12T22:38:25.223Z,6.35
2022-11-12T22:41:15.724Z,6.30
2022-11-12T22:44:02.572Z,6.26
2022-11-12T22:46:47.779Z,6.31
2022-11-12T22:49:33.175Z,6.32
2022-11-12T22:52:18.258Z,6.35
2022-11-12T22:55:04.634Z,6.38
2022-11-12T22:57:49.917Z,6.34
2022-11-12T23:00:35.174Z,6.10
2022-11-12T23:03:20.431Z,6.03
2022-11-12T23:06:06.460Z,6.19
2022-11-12T23:08:53.705Z,6.47
2022-11-12T23:11:38.955Z,6.53
2022-11-12T23:14:24.283Z,6.56
2022-11-12T23:17:09.718Z,6.69
2022-11-12T23:19:54.904Z,6.74
2022-11-12T23:22:40.272Z,6.77
2022-11-12T23:25:25.563Z,6.71
2022-11-12T23:28:10.782Z,6.72
2022-11-12T23:30:56.303Z,6.72
2022-11-12T23:33:49.357Z,6.76
2022-11-12T23:36:34.575Z,6.68
2022-11-12T23:39:19.656Z,6.68
2022-11-12T23:42:05.064Z,6.62
2022-11-12T23:44:50.332Z,6.49
2022-11-12T23:47:35.338Z,6.45
2022-11-12T23:50:20.568Z,6.46
2022-11-12T23:53:05.785Z,6.47
2022-11-12T23:55:51.188Z,6.53
2022-11-12T23:58:38.080Z,6.56
